createdAt,value
2023-11-01T00:01:12.419Z,14.97
2023-11-01T00:03:39.504Z,15.07
2023-11-01T00:06:07.192Z,14.95
2023-11-01T00:08:34.337Z,15.03
2023-11-01T00:11:01.430Z,15.11
2023-11-01T00:13:28.431Z,15.08
2023-11-01T00:15:55.275Z,15.13
2023-11-01T00:18:22.567Z,15.16
2023-11-01T00:20:49.524Z,15.04
2023-11-01T00:23:16.589Z,15.16
2023-11-01T00:25:43.609Z,15.08
2023-11-01T00:28:10.653Z,15.18
2023-11-01T00:30:37.616Z,15.18
2023-11-01T00:33:04.819Z,15.11
2023-11-01T00:35:32.073Z,15.16
2023-11-01T00:37:59.159Z,15.28
2023-11-01T00:40:26.160Z,15.29
2023-11-01T00:42:53.230Z,15.37
2023-11-01T00:45:20.161Z,15.51
2023-11-01T00:47:47.101Z,15.53
2023-11-01T00:50:14.203Z,15.55
2023-11-01T00:52:41.428Z,15.47
2023-11-01T00:55:08.843Z,15.59
2023-11-01T00:57:36.000Z,15.55
2023-11-01T01:00:03.292Z,15.49
2023-11-01T01:02:30.450Z,15.51
2023-11-01T01:04:57.845Z,15.45
2023-11-01T01:07:24.766Z,15.40
2023-11-01T01:09:51.918Z,15.40
2023-11-01T01:12:18.765Z,15.42
2023-11-01T01:14:45.657Z,15.51
2023-11-01T01:17:12.718Z,15.60
2023-11-01T01:19:39.708Z,15.62
2023-11-01T01:22:06.713Z,15.64
2023-11-01T01:24:33.921Z,15.70
2023-11-01T01:27:00.886Z,15.72
2023-11-01T01:29:27.863Z,15.73
2023-11-01T01:31:54.748Z,15.84
2023-11-01T01:34:21.727Z,15.90
2023-11-01T01:36:48.616Z,15.92
2023-11-01T01:39:16.175Z,16.04
2023-11-01T01:41:43.120Z,16.17
2023-11-01T01:44:10.155Z,16.23
2023-11-01T01:46:37.192Z,16.21
2023-11-01T01:49:04.572Z,16.44
2023-11-01T01:51:32.038Z,16.55
2023-11-01T01:53:59.258Z,16.64
2023-11-01T01:56:26.884Z,16.77
2023-11-01T01:58:54.247Z,16.88
2023-11-01T02:01:34.712Z,16.90
2023-11-01T02:04:06.058Z,17.03
2023-11-01T02:06:33.122Z,17.09
2023-11-01T02:09:00.417Z,17.15
2023-11-01T02:11:27.308Z,17.01
2023-11-01T02:13:54.532Z,17.09
2023-11-01T02:16:21.446Z,17.31
2023-11-01T02:18:48.434Z,17.35
2023-11-01T02:21:15.570Z,17.35
2023-11-01T02:23:44.651Z,17.27
2023-11-01T02:26:11.870Z,17.38
2023-11-01T02:28:38.808Z,17.36
2023-11-01T02:31:06.477Z,17.38
2023-11-01T02:33:33.339Z,17.44
2023-11-01T02:36:00.121Z,17.40
2023-11-01T02:38:27.355Z,17.47
2023-11-01T02:40:54.249Z,17.49
2023-11-01T02:43:21.200Z,17.47
2023-11-01T02:45:48.960Z,17.39
2023-11-01T02:48:15.935Z,17.52
2023-11-01T02:50:42.791Z,17.47
2023-11-01T02:53:09.877Z,17.38
2023-11-01T02:55:36.719Z,17.28
2023-11-01T02:58:04.475Z,17.29
2023-11-01T03:00:32.006Z,17.29
2023-11-01T03:02:59.247Z,17.23
2023-11-01T03:05:28.481Z,17.26
2023-11-01T03:07:55.597Z,17.26
2023-11-01T03:10:22.446Z,17.28
2023-11-01T03:12:49.476Z,17.26
2023-11-01T03:15:16.431Z,17.22
2023-11-01T03:17:43.884Z,17.21
2023-11-01T03:20:12.459Z,17.19
2023-11-01T03:22:40.885Z,17.14
2023-11-01T03:25:09.823Z,16.97
2023-11-01T03:27:36.819Z,16.95
2023-11-01T03:30:04.080Z,17.01
2023-11-01T03:32:31.220Z,16.79
2023-11-01T03:34:59.218Z,16.77
2023-11-01T03:37:27.107Z,16.81
2023-11-01T03:39:54.234Z,16.85
2023-11-01T03:42:22.422Z,16.79
2023-11-01T03:44:52.517Z,16.73
2023-11-01T03:47:19.518Z,16.70
2023-11-01T03:49:46.531Z,16.71
2023-11-01T03:52:13.638Z,16.57
2023-11-01T03:54:40.653Z,16.59
2023-11-01T03:57:07.719Z,16.53
2023-11-01T03:59:35.089Z,16.57
2023-11-01T04:02:02.183Z,16.61
2023-11-01T04:04:29.681Z,16.50
2023-11-01T04:06:56.743Z,16.44
2023-11-01T04:09:23.906Z,16.48
2023-11-01T04:11:50.963Z,16.45
2023-11-01T04:14:18.526Z,16.34
2023-11-01T04:16:45.618Z,16.40
2023-11-01T04:19:13.042Z,16.42
2023-11-01T04:21:40.030Z,16.41
2023-11-01T04:24:11.422Z,16.41
2023-11-01T04:26:38.743Z,16.36
2023-11-01T04:29:05.947Z,16.41
2023-11-01T04:31:33.184Z,16.43
2023-11-01T04:34:00.429Z,16.42
2023-11-01T04:36:27.438Z,16.45
2023-11-01T04:38:54.842Z,16.50
2023-11-01T04:41:22.265Z,16.49
2023-11-01T04:43:49.333Z,16.52
2023-11-01T04:46:16.603Z,16.57
2023-11-01T04:48:43.877Z,16.60
2023-11-01T04:51:11.230Z,16.55
2023-11-01T04:53:39.118Z,16.59
2023-11-01T04:56:07.562Z,16.52
2023-11-01T04:58:36.731Z,16.63
2023-11-01T05:01:06.731Z,16.68
2023-11-01T05:03:36.573Z,16.50
2023-11-01T05:06:04.709Z,16.58
2023-11-01T05:08:31.813Z,16.49
2023-11-01T05:10:59.120Z,16.42
2023-11-01T05:13:26.280Z,16.41
2023-11-01T05:15:53.424Z,16.35
2023-11-01T05:18:20.303Z,16.42
2023-11-01T05:20:47.642Z,16.45
2023-11-01T05:23:14.683Z,16.42
2023-11-01T05:25:41.871Z,16.39
2023-11-01T05:28:09.090Z,16.47
2023-11-01T05:30:36.098Z,16.49
2023-11-01T05:33:03.444Z,16.50
2023-11-01T05:35:30.729Z,16.47
2023-11-01T05:37:58.213Z,16.44
2023-11-01T05:40:25.554Z,16.56
2023-11-01T05:42:52.492Z,16.60
2023-11-01T05:45:21.791Z,16.49
2023-11-01T05:47:53.869Z,16.65
2023-11-01T05:50:26.882Z,16.57
2023-11-01T05:52:57.013Z,16.62
2023-11-01T05:55:33.124Z,16.78
2023-11-01T05:58:09.395Z,16.76
2023-11-01T06:00:37.456Z,16.81
2023-11-01T06:03:08.472Z,16.87
2023-11-01T06:05:37.691Z,16.84
2023-11-01T06:08:05.282Z,16.96
2023-11-01T06:10:32.180Z,17.07
2023-11-01T06:12:59.838Z,17.09
2023-11-01T06:15:26.960Z,17.16
2023-11-01T06:17:54.404Z,17.16
2023-11-01T06:20:21.533Z,17.18
2023-11-01T06:22:48.590Z,17.21
2023-11-01T06:25:18.403Z,17.29
2023-11-01T06:27:45.452Z,17.24
2023-11-01T06:30:12.872Z,17.35
2023-11-01T06:32:39.994Z,17.26
2023-11-01T06:35:07.621Z,17.34
2023-11-01T06:37:34.853Z,17.39
2023-11-01T06:40:06.743Z,17.42
2023-11-01T06:42:33.715Z,17.44
2023-11-01T06:45:00.818Z,17.44
2023-11-01T06:47:27.731Z,17.36
2023-11-01T06:49:54.827Z,17.44
2023-11-01T06:52:21.758Z,17.46
2023-11-01T06:54:48.825Z,17.59
2023-11-01T06:57:15.914Z,17.62
2023-11-01T06:59:43.306Z,17.61
2023-11-01T07:02:10.727Z,17.66
2023-11-01T07:04:37.770Z,17.68
2023-11-01T07:07:05.048Z,17.74
2023-11-01T07:09:33.074Z,17.67
2023-11-01T07:12:00.906Z,17.63
2023-11-01T07:14:28.127Z,17.64
2023-11-01T07:16:55.049Z,17.62
2023-11-01T07:19:21.911Z,17.57
2023-11-01T07:21:49.155Z,17.72
2023-11-01T07:24:15.963Z,17.84
2023-11-01T07:26:43.249Z,17.82
2023-11-01T07:29:10.790Z,17.88
2023-11-01T07:31:38.024Z,17.63
2023-11-01T07:34:05.037Z,17.80
2023-11-01T07:36:32.396Z,17.90
2023-11-01T07:38:59.347Z,17.96
2023-11-01T07:41:26.464Z,18.02
2023-11-01T07:43:53.778Z,18.03
2023-11-01T07:46:20.889Z,18.10
2023-11-01T07:48:48.479Z,18.23
2023-11-01T07:51:15.462Z,18.47
2023-11-01T07:53:42.633Z,18.63
2023-11-01T07:56:09.765Z,18.81
2023-11-01T07:58:36.902Z,18.82
2023-11-01T08:01:04.671Z,18.95
2023-11-01T08:03:32.741Z,18.89
2023-11-01T08:06:00.164Z,19.10
2023-11-01T08:08:27.190Z,18.95
2023-11-01T08:10:54.601Z,18.97
2023-11-01T08:13:21.534Z,18.95
2023-11-01T08:15:48.746Z,18.99
2023-11-01T08:18:16.570Z,18.86
2023-11-01T08:20:44.117Z,18.89
2023-11-01T08:23:11.181Z,18.91
2023-11-01T08:25:38.652Z,18.82
2023-11-01T08:28:06.000Z,18.90
2023-11-01T08:30:32.862Z,18.78
2023-11-01T08:32:59.953Z,18.86
2023-11-01T08:35:27.214Z,18.74
2023-11-01T08:37:54.469Z,18.97
2023-11-01T08:40:21.442Z,19.07
2023-11-01T08:42:48.527Z,19.24
2023-11-01T08:45:16.110Z,19.25
2023-11-01T08:47:45.871Z,19.40
2023-11-01T08:50:14.739Z,19.50
2023-11-01T08:52:44.335Z,19.50
2023-11-01T08:55:15.703Z,19.53
2023-11-01T08:57:43.790Z,19.57
2023-11-01T09:00:11.678Z,19.52
2023-11-01T09:02:38.914Z,19.67
2023-11-01T09:05:06.097Z,19.78
2023-11-01T09:07:33.135Z,19.72
2023-11-01T09:10:02.046Z,19.66
2023-11-01T09:12:30.083Z,19.50
2023-11-01T09:14:57.121Z,19.52
2023-11-01T09:17:24.495Z,19.64
2023-11-01T09:19:52.163Z,19.72
2023-11-01T09:22:19.401Z,19.63
2023-11-01T09:24:46.860Z,19.66
2023-11-01T09:27:13.841Z,19.65
2023-11-01T09:29:40.838Z,19.67
2023-11-01T09:32:08.425Z,19.61
2023-11-01T09:34:35.845Z,19.79
2023-11-01T09:37:03.229Z,19.88
2023-11-01T09:39:31.814Z,19.88
2023-11-01T09:42:06.900Z,19.97
2023-11-01T09:44:34.584Z,20.08
2023-11-01T09:47:01.589Z,20.06
2023-11-01T09:49:31.960Z,20.01
2023-11-01T09:52:01.649Z,20.08
2023-11-01T09:54:28.813Z,20.31
2023-11-01T09:56:57.990Z,20.63
2023-11-01T09:59:26.081Z,20.71
2023-11-01T10:01:53.391Z,20.76
2023-11-01T10:04:20.934Z,20.57
2023-11-01T10:06:48.335Z,20.30
2023-11-01T10:09:15.335Z,20.25
2023-11-01T10:11:43.685Z,20.40
2023-11-01T10:14:10.898Z,20.27
2023-11-01T10:16:40.271Z,20.30
2023-11-01T10:19:08.181Z,20.14
2023-11-01T10:21:35.234Z,20.07
2023-11-01T10:24:04.512Z,20.11
2023-11-01T10:26:32.435Z,19.93
2023-11-01T10:29:01.035Z,19.84
2023-11-01T10:31:28.035Z,19.81
2023-11-01T10:33:55.843Z,19.76
2023-11-01T10:36:22.973Z,19.82
2023-11-01T10:38:52.835Z,19.74
2023-11-01T10:41:20.730Z,19.62
2023-11-01T10:43:52.074Z,19.69
2023-11-01T10:46:20.870Z,19.77
2023-11-01T10:48:48.582Z,19.91
2023-11-01T10:51:16.040Z,19.92
2023-11-01T10:53:43.723Z,20.07
2023-11-01T10:56:11.251Z,20.25
2023-11-01T10:58:43.805Z,20.27
2023-11-01T11:01:25.759Z,20.36
2023-11-01T11:04:28.052Z,20.38
2023-11-01T11:07:24.230Z,20.44
2023-11-01T11:10:27.911Z,20.32
2023-11-01T11:13:10.454Z,20.50
2023-11-01T11:15:50.074Z,20.53
2023-11-01T11:18:25.645Z,20.42
2023-11-01T11:20:53.998Z,20.72
2023-11-01T11:23:32.700Z,20.61
2023-11-01T11:26:01.498Z,20.62
2023-11-01T11:28:39.478Z,20.58
2023-11-01T11:31:08.470Z,20.61
2023-11-01T11:33:50.868Z,20.67
2023-11-01T11:36:19.980Z,20.69
2023-11-01T11:38:54.094Z,20.76
2023-11-01T11:41:30.037Z,20.28
2023-11-01T11:44:13.726Z,20.51
2023-11-01T11:46:46.447Z,20.53
2023-11-01T11:49:30.300Z,20.50
2023-11-01T11:52:08.618Z,20.35
2023-11-01T11:54:36.231Z,20.05
2023-11-01T11:57:10.019Z,20.13
2023-11-01T11:59:37.678Z,20.14
2023-11-01T12:02:11.414Z,20.16
2023-11-01T12:04:41.475Z,20.22
2023-11-01T12:07:09.216Z,20.24
2023-11-01T12:09:36.264Z,20.36
2023-11-01T12:12:14.589Z,20.39
2023-11-01T12:14:42.333Z,20.22
2023-11-01T12:17:09.646Z,20.41
2023-11-01T12:19:48.224Z,20.33
2023-11-01T12:22:16.987Z,20.28
2023-11-01T12:24:47.909Z,20.25
2023-11-01T12:27:16.660Z,20.28
2023-11-01T12:29:47.762Z,20.39
2023-11-01T12:32:28.826Z,20.39
2023-11-01T12:34:59.029Z,20.41
2023-11-01T12:37:31.362Z,20.49
2023-11-01T12:40:12.272Z,20.51
2023-11-01T12:42:47.690Z,20.48
2023-11-01T12:45:16.308Z,20.34
2023-11-01T12:47:43.406Z,20.37
2023-11-01T12:50:12.225Z,20.26
2023-11-01T12:52:41.067Z,20.12
2023-11-01T12:55:09.958Z,20.33
2023-11-01T12:57:43.855Z,20.45
2023-11-01T13:00:15.107Z,20.48
2023-11-01T13:02:42.447Z,20.33
2023-11-01T13:05:10.211Z,20.41
2023-11-01T13:07:37.609Z,20.28
2023-11-01T13:10:04.974Z,20.22
2023-11-01T13:12:32.932Z,20.04
2023-11-01T13:14:59.957Z,20.08
2023-11-01T13:17:27.567Z,20.02
2023-11-01T13:19:57.063Z,20.06
2023-11-01T13:22:25.457Z,20.12
2023-11-01T13:24:52.408Z,20.11
2023-11-01T13:27:19.631Z,19.92
2023-11-01T13:29:49.545Z,19.94
2023-11-01T13:32:16.765Z,19.99
2023-11-01T13:34:44.880Z,19.94
2023-11-01T13:37:13.869Z,19.83
2023-11-01T13:39:40.766Z,19.85
2023-11-01T13:42:08.420Z,19.79
2023-11-01T13:44:35.866Z,19.47
2023-11-01T13:47:03.027Z,19.63
2023-11-01T13:49:30.185Z,19.62
2023-11-01T13:51:57.836Z,19.51
2023-11-01T13:54:24.739Z,19.50
2023-11-01T13:56:51.859Z,19.37
2023-11-01T13:59:18.715Z,19.41
2023-11-01T14:01:46.203Z,19.41
2023-11-01T14:04:15.683Z,19.34
2023-11-01T14:06:42.994Z,19.35
2023-11-01T14:09:12.709Z,19.13
2023-11-01T14:11:40.089Z,19.17
2023-11-01T14:14:07.270Z,19.11
2023-11-01T14:16:34.214Z,19.15
2023-11-01T14:19:01.113Z,19.07
2023-11-01T14:21:28.675Z,18.81
2023-11-01T14:23:55.855Z,18.84
2023-11-01T14:26:23.663Z,18.90
2023-11-01T14:28:50.621Z,18.86
2023-11-01T14:31:20.653Z,18.86
2023-11-01T14:33:47.779Z,18.75
2023-11-01T14:36:14.845Z,18.76
2023-11-01T14:38:42.024Z,18.82
2023-11-01T14:41:08.867Z,18.75
2023-11-01T14:43:35.949Z,18.73
2023-11-01T14:46:04.718Z,18.48
2023-11-01T14:48:32.031Z,18.58
2023-11-01T14:50:59.132Z,18.55
2023-11-01T14:53:26.078Z,18.43
2023-11-01T14:55:53.253Z,18.48
2023-11-01T14:58:20.432Z,18.43
2023-11-01T15:00:48.209Z,18.39
2023-11-01T15:03:15.376Z,18.34
2023-11-01T15:05:43.323Z,18.25
2023-11-01T15:08:10.277Z,18.13
2023-11-01T15:10:37.613Z,18.12
2023-11-01T15:13:04.921Z,18.11
2023-11-01T15:15:32.519Z,18.08
2023-11-01T15:17:59.553Z,17.93
2023-11-01T15:20:27.960Z,17.80
2023-11-01T15:22:54.917Z,17.81
2023-11-01T15:25:21.979Z,17.66
2023-11-01T15:27:50.123Z,17.67
2023-11-01T15:30:20.369Z,17.72
2023-11-01T15:32:47.544Z,17.65
2023-11-01T15:35:14.835Z,17.52
2023-11-01T15:37:42.411Z,17.41
2023-11-01T15:40:09.880Z,17.41
2023-11-01T15:42:37.120Z,17.40
2023-11-01T15:45:05.384Z,17.32
2023-11-01T15:47:32.366Z,17.23
2023-11-01T15:49:59.193Z,17.12
2023-11-01T15:52:26.198Z,17.11
2023-11-01T15:54:53.870Z,17.05
2023-11-01T15:57:23.047Z,16.99
2023-11-01T15:59:51.398Z,16.91
2023-11-01T16:02:18.372Z,16.87
2023-11-01T16:04:45.560Z,16.83
2023-11-01T16:07:12.747Z,16.65
2023-11-01T16:09:39.881Z,16.66
2023-11-01T16:12:07.328Z,16.51
2023-11-01T16:14:34.636Z,16.50
2023-11-01T16:17:03.172Z,16.38
2023-11-01T16:19:30.400Z,16.30
2023-11-01T16:21:57.318Z,16.30
2023-11-01T16:24:24.611Z,16.25
2023-11-01T16:26:51.432Z,16.22
2023-11-01T16:29:18.471Z,16.17
2023-11-01T16:31:45.626Z,16.17
2023-11-01T16:34:12.909Z,16.13
2023-11-01T16:36:39.953Z,16.11
2023-11-01T16:39:07.506Z,15.94
2023-11-01T16:41:35.212Z,15.89
2023-11-01T16:44:02.300Z,15.94
2023-11-01T16:46:29.449Z,15.88
2023-11-01T16:48:56.539Z,15.96
2023-11-01T16:51:23.524Z,15.99
2023-11-01T16:53:50.842Z,15.93
2023-11-01T16:56:18.883Z,15.88
2023-11-01T16:58:46.066Z,15.82
2023-11-01T17:01:12.901Z,15.75
2023-11-01T17:03:39.941Z,15.70
2023-11-01T17:06:07.706Z,15.59
2023-11-01T17:08:34.832Z,15.65
2023-11-01T17:11:01.924Z,15.60
2023-11-01T17:13:28.913Z,15.45
2023-11-01T17:15:57.377Z,15.49
2023-11-01T17:18:25.137Z,15.42
2023-11-01T17:20:53.356Z,15.32
2023-11-01T17:23:20.431Z,15.29
2023-11-01T17:25:50.514Z,15.16
2023-11-01T17:28:21.937Z,15.03
2023-11-01T17:30:49.334Z,14.88
2023-11-01T17:33:16.640Z,14.89
2023-11-01T17:35:43.826Z,14.74
2023-11-01T17:38:41.792Z,14.83
2023-11-01T17:41:10.309Z,14.64
2023-11-01T17:43:52.167Z,14.61
2023-11-01T17:46:19.568Z,14.46
2023-11-01T17:48:47.471Z,14.42
2023-11-01T17:51:15.247Z,14.38
2023-11-01T17:53:42.220Z,14.26
2023-11-01T17:56:09.677Z,14.28
2023-11-01T17:58:36.835Z,14.24
2023-11-01T18:01:05.000Z,14.15
2023-11-01T18:03:36.600Z,14.08
2023-11-01T18:06:03.968Z,13.93
2023-11-01T18:08:34.008Z,13.91
2023-11-01T18:11:04.555Z,14.01
2023-11-01T18:13:36.876Z,13.93
2023-11-01T18:16:06.770Z,13.89
2023-11-01T18:18:40.277Z,13.88
2023-11-01T18:21:21.505Z,13.78
2023-11-01T18:24:04.595Z,13.66
2023-11-01T18:26:34.287Z,13.34
2023-11-01T18:29:04.164Z,13.55
2023-11-01T18:31:37.953Z,13.44
2023-11-01T18:34:07.670Z,13.29
2023-11-01T18:36:40.513Z,13.21
2023-11-01T18:39:12.287Z,13.26
2023-11-01T18:41:43.955Z,13.22
2023-11-01T18:44:34.192Z,13.12
2023-11-01T18:47:01.832Z,13.00
2023-11-01T18:49:50.464Z,12.90
2023-11-01T18:52:18.482Z,12.72
2023-11-01T18:54:47.971Z,12.61
2023-11-01T18:57:18.195Z,12.75
2023-11-01T18:59:45.351Z,12.80
2023-11-01T19:02:34.249Z,12.86
2023-11-01T19:05:02.315Z,12.89
2023-11-01T19:07:32.456Z,12.70
2023-11-01T19:09:59.740Z,12.85
2023-11-01T19:12:33.778Z,12.62
2023-11-01T19:15:01.127Z,12.57
2023-11-01T19:17:33.022Z,12.56
2023-11-01T19:20:00.264Z,12.44
2023-11-01T19:22:27.540Z,12.31
2023-11-01T19:24:54.847Z,12.25
2023-11-01T19:27:24.185Z,12.23
2023-11-01T19:29:51.663Z,12.14
2023-11-01T19:32:18.540Z,12.10
2023-11-01T19:34:45.501Z,11.99
2023-11-01T19:37:12.436Z,11.93
2023-11-01T19:39:39.360Z,11.86
2023-11-01T19:42:06.745Z,11.62
2023-11-01T19:44:33.771Z,11.72
2023-11-01T19:47:00.916Z,11.70
2023-11-01T19:49:28.511Z,11.64
2023-11-01T19:51:55.663Z,11.64
2023-11-01T19:54:22.746Z,11.33
2023-11-01T19:56:50.104Z,11.35
2023-11-01T19:59:17.363Z,11.30
2023-11-01T20:01:44.688Z,11.35
2023-11-01T20:04:11.565Z,11.26
2023-11-01T20:06:38.638Z,11.20
2023-11-01T20:09:08.041Z,11.17
2023-11-01T20:11:34.933Z,11.11
2023-11-01T20:14:02.388Z,11.02
2023-11-01T20:16:31.176Z,10.96
2023-11-01T20:18:59.567Z,10.91
2023-11-01T20:21:26.647Z,11.04
2023-11-01T20:23:54.401Z,11.03
2023-11-01T20:26:22.072Z,11.18
2023-11-01T20:28:49.072Z,11.13
2023-11-01T20:31:15.959Z,11.06
2023-11-01T20:33:43.030Z,11.03
2023-11-01T20:36:10.623Z,11.02
2023-11-01T20:38:39.711Z,10.81
2023-11-01T20:41:07.338Z,11.01
2023-11-01T20:43:34.115Z,10.97
2023-11-01T20:46:00.899Z,10.94
2023-11-01T20:48:28.051Z,11.09
2023-11-01T20:50:55.153Z,11.05
2023-11-01T20:53:30.975Z,11.13
2023-11-01T20:55:57.991Z,10.91
2023-11-01T20:58:29.539Z,10.84
2023-11-01T21:00:59.059Z,10.74
2023-11-01T21:03:27.991Z,10.67
2023-11-01T21:05:54.985Z,10.75
2023-11-01T21:08:22.092Z,10.76
2023-11-01T21:10:49.150Z,10.66
2023-11-01T21:13:16.302Z,10.70
2023-11-01T21:15:43.657Z,10.69
2023-11-01T21:18:11.809Z,10.69
2023-11-01T21:20:38.806Z,10.74
2023-11-01T21:23:05.784Z,10.67
2023-11-01T21:25:32.948Z,10.90
2023-11-01T21:28:01.471Z,10.89
2023-11-01T21:30:28.573Z,10.81
2023-11-01T21:32:55.653Z,10.69
2023-11-01T21:35:31.161Z,10.74
2023-11-01T21:38:04.248Z,10.77
2023-11-01T21:40:33.223Z,10.79
2023-11-01T21:43:00.354Z,10.67
2023-11-01T21:45:40.377Z,10.54
2023-11-01T21:48:07.415Z,10.73
2023-11-01T21:50:57.787Z,10.68
2023-11-01T21:53:27.565Z,10.68
2023-11-01T21:55:56.007Z,10.63
2023-11-01T21:58:26.334Z,10.48
2023-11-01T22:01:05.378Z,10.29
2023-11-01T22:03:36.030Z,10.26
2023-11-01T22:06:05.253Z,10.10
2023-11-01T22:08:53.729Z,10.11
2023-11-01T22:11:20.943Z,9.96
2023-11-01T22:13:48.062Z,9.93
2023-11-01T22:16:35.396Z,9.94
2023-11-01T22:19:07.024Z,9.77
2023-11-01T22:21:35.861Z,9.92
2023-11-01T22:24:04.862Z,9.76
2023-11-01T22:26:33.394Z,9.65
2023-11-01T22:29:05.625Z,9.67
2023-11-01T22:31:53.416Z,9.60
2023-11-01T22:34:23.446Z,9.62
2023-11-01T22:36:52.597Z,9.57
2023-11-01T22:39:41.451Z,9.58
2023-11-01T22:42:19.165Z,9.63
2023-11-01T22:44:46.579Z,9.58
2023-11-01T22:47:14.360Z,9.60
2023-11-01T22:49:41.856Z,9.61
2023-11-01T22:52:09.282Z,9.58
2023-11-01T22:54:36.644Z,9.63
2023-11-01T22:57:04.062Z,9.39
2023-11-01T22:59:31.374Z,9.46
2023-11-01T23:01:58.280Z,9.54
2023-11-01T23:04:25.600Z,9.49
2023-11-01T23:06:52.941Z,9.55
2023-11-01T23:09:20.547Z,9.57
2023-11-01T23:11:47.755Z,9.52
2023-11-01T23:14:14.860Z,9.59
2023-11-01T23:16:42.987Z,9.52
2023-11-01T23:19:11.777Z,9.63
2023-11-01T23:21:39.982Z,9.64
2023-11-01T23:24:11.378Z,9.69
2023-11-01T23:26:55.408Z,9.71
2023-11-01T23:29:30.562Z,9.71
2023-11-01T23:31:58.767Z,9.72
2023-11-01T23:34:48.565Z,9.62
2023-11-01T23:37:22.472Z,9.51
2023-11-01T23:39:51.647Z,9.53
2023-11-01T23:42:20.533Z,9.57
2023-11-01T23:44:48.751Z,9.61
2023-11-01T23:47:45.074Z,9.64
2023-11-01T23:50:32.885Z,9.62
2023-11-01T23:53:05.569Z,9.63
2023-11-01T23:55:33.587Z,9.78
2023-11-01T23:58:56.660Z,9.84
